Terminal Aerodrome Forecast
Issued by NWS Upton, NY

Home | Current Version | Previous Version | Text Only | Print | Product List | Glossary On
Versions: 1 2 3 4 5 6 7 8 9 10 11 12 13 14 15 16 17 18 19 20 21 22 23 24 25 26 27 28 29 30 31 32 33 34 35
895
FTUS41 KOKX 202208 AAB
TAFBDR
TAF AMD
KBDR 202208Z 2022/2118 34012G20KT P6SM FEW060
     FM210000 34010KT P6SM SKC
     FM210200 33007KT P6SM SKC
     FM210500 32005KT P6SM SKC
     FM211500 32011KT P6SM SKC
     FM211700 29011KT P6SM FEW040 FEW250=

USA.gov is the U.S. government's official web portal to all federal, state and local government web resources and services.